createdAt,value
2023-01-29T00:00:44.009Z,3.3
2023-01-29T00:02:49.736Z,3.3
2023-01-29T00:07:04.067Z,3.3
2023-01-29T00:11:15.400Z,3.3
2023-01-29T00:13:21.076Z,3.3
2023-01-29T00:15:26.711Z,3.3
2023-01-29T00:17:32.375Z,3.3
2023-01-29T00:19:41.144Z,3.3
2023-01-29T00:23:52.441Z,3.3
2023-01-29T00:28:03.769Z,3.3
2023-01-29T00:30:09.456Z,3.3
2023-01-29T00:32:15.202Z,3.2
2023-01-29T00:34:23.803Z,3.3
2023-01-29T00:36:29.464Z,3.3
2023-01-29T00:43:12.271Z,3.2
2023-01-29T00:45:17.930Z,3.3
2023-01-29T00:47:26.697Z,3.3
2023-01-29T00:49:32.351Z,3.3
2023-01-29T00:51:38.007Z,3.3
2023-01-29T00:53:43.696Z,3.3
2023-01-29T00:55:49.355Z,3.3
2023-01-29T00:57:55.018Z,3.3
2023-01-29T01:00:00.665Z,3.4
2023-01-29T01:02:09.459Z,3.3
2023-01-29T01:04:15.063Z,3.4
2023-01-29T01:06:20.697Z,3.4
2023-01-29T01:08:26.380Z,3.4
2023-01-29T01:10:32.041Z,3.4
2023-01-29T01:16:52.098Z,3.4
2023-01-29T01:18:57.786Z,3.4
2023-01-29T01:21:03.424Z,3.4
2023-01-29T01:23:09.087Z,3.4
2023-01-29T01:25:14.776Z,3.4
2023-01-29T01:27:20.404Z,3.5
2023-01-29T01:31:34.860Z,3.4
2023-01-29T01:33:40.481Z,3.4
2023-01-29T01:35:46.156Z,3.4
2023-01-29T01:36:50.548Z,3.5
2023-01-29T01:38:57.816Z,3.4
2023-01-29T01:45:17.821Z,3.5
2023-01-29T01:47:23.512Z,3.4
2023-01-29T01:49:29.169Z,3.4
2023-01-29T01:51:34.871Z,3.5
2023-01-29T01:57:51.840Z,3.4
2023-01-29T02:04:11.920Z,3.3
2023-01-29T02:08:23.235Z,3.4
2023-01-29T02:10:28.885Z,3.4
2023-01-29T02:12:34.650Z,3.4
2023-01-29T02:14:43.313Z,3.4
2023-01-29T02:16:48.965Z,3.3
2023-01-29T02:18:54.639Z,3.3
2023-01-29T02:23:05.974Z,3.3
2023-01-29T02:29:26.042Z,3.3
2023-01-29T02:31:31.708Z,3.3
2023-01-29T02:34:41.714Z,3.4
2023-01-29T02:36:47.409Z,3.3
2023-01-29T02:38:53.034Z,3.4
2023-01-29T02:43:07.623Z,3.4
2023-01-29T02:45:13.102Z,3.3
2023-01-29T02:47:18.833Z,3.3
2023-01-29T02:51:30.113Z,3.3
2023-01-29T02:53:35.779Z,3.4
2023-01-29T02:55:41.454Z,3.3
2023-01-29T02:59:55.828Z,3.3
2023-01-29T03:02:01.579Z,3.3
2023-01-29T03:04:07.180Z,3.3
2023-01-29T03:06:12.867Z,3.3
2023-01-29T03:08:18.514Z,3.3
2023-01-29T03:10:24.179Z,3.3
2023-01-29T03:12:32.917Z,3.3
2023-01-29T03:14:38.570Z,3.3
2023-01-29T03:16:44.292Z,3.3
2023-01-29T03:27:15.497Z,3.3
2023-01-29T03:31:26.993Z,3.3
2023-01-29T03:34:36.875Z,3.3
2023-01-29T03:36:42.555Z,3.3
2023-01-29T03:43:02.620Z,3.3
2023-01-29T03:51:25.303Z,3.3
2023-01-29T03:53:31.003Z,3.3
2023-01-29T03:55:39.704Z,3.3
2023-01-29T03:57:45.356Z,3.3
2023-01-29T03:59:51.043Z,3.3
2023-01-29T04:01:56.674Z,3.2
2023-01-29T04:04:02.372Z,3.3
2023-01-29T04:06:08.019Z,3.3
2023-01-29T04:08:13.669Z,3.2
2023-01-29T04:10:22.436Z,3.2
2023-01-29T04:12:28.082Z,3.2
2023-01-29T04:14:33.766Z,3.2
2023-01-29T04:22:56.395Z,3.2
2023-01-29T04:25:05.154Z,3.1
2023-01-29T04:27:10.794Z,3.1
2023-01-29T04:29:16.460Z,3.1
2023-01-29T04:31:45.911Z,3.1
2023-01-29T04:38:05.908Z,3.1
2023-01-29T04:42:17.208Z,3.2
2023-01-29T04:44:22.884Z,3.1
2023-01-29T04:46:28.549Z,3.1
2023-01-29T04:48:34.196Z,3.1
2023-01-29T04:50:40.016Z,3.1
2023-01-29T04:52:48.599Z,3.1
2023-01-29T04:54:54.246Z,3.1
2023-01-29T04:56:59.921Z,3.1
2023-01-29T05:05:22.547Z,3
2023-01-29T05:07:31.282Z,3
2023-01-29T05:09:36.935Z,3
2023-01-29T05:11:42.622Z,3
2023-01-29T05:15:53.917Z,3
2023-01-29T05:22:13.938Z,2.9
2023-01-29T05:24:19.689Z,2.9
2023-01-29T05:27:29.639Z,2.8
2023-01-29T05:29:35.286Z,2.8
2023-01-29T05:31:41.088Z,2.8
2023-01-29T05:33:46.611Z,2.8
2023-01-29T05:35:55.353Z,2.8
2023-01-29T05:38:00.992Z,2.8
2023-01-29T05:40:06.656Z,2.8
2023-01-29T05:42:12.308Z,2.8
2023-01-29T05:44:17.959Z,2.8
2023-01-29T05:46:23.662Z,2.8
2023-01-29T05:48:29.295Z,2.8
2023-01-29T05:50:37.979Z,2.8
2023-01-29T05:52:43.652Z,2.8
2023-01-29T05:54:49.288Z,2.8
2023-01-29T05:56:54.930Z,2.8
2023-01-29T05:59:00.588Z,2.8
2023-01-29T06:01:06.207Z,2.7
2023-01-29T06:05:20.628Z,2.7
2023-01-29T06:07:26.234Z,2.7
2023-01-29T06:11:37.555Z,2.8
2023-01-29T06:17:54.463Z,2.6
2023-01-29T06:20:03.203Z,2.7
2023-01-29T06:24:14.557Z,2.7
2023-01-29T06:25:18.831Z,2.7
2023-01-29T06:27:24.515Z,2.7
2023-01-29T06:29:30.131Z,2.7
2023-01-29T06:31:38.848Z,2.7
2023-01-29T06:33:44.500Z,2.7
2023-01-29T06:35:50.133Z,2.8
2023-01-29T06:44:12.725Z,2.8
2023-01-29T06:46:18.368Z,2.8
2023-01-29T06:50:32.753Z,2.7
2023-01-29T06:52:38.354Z,2.8
2023-01-29T06:54:43.994Z,2.8
2023-01-29T06:56:49.619Z,2.8
2023-01-29T06:58:55.279Z,2.8
2023-01-29T07:01:00.930Z,2.8
2023-01-29T07:05:15.276Z,2.7
2023-01-29T07:15:43.495Z,2.8
2023-01-29T07:17:52.188Z,2.8
2023-01-29T07:19:57.839Z,2.8
2023-01-29T07:22:03.501Z,2.8
2023-01-29T07:23:07.846Z,2.8
2023-01-29T07:25:13.492Z,2.8
2023-01-29T07:27:19.121Z,2.9
2023-01-29T07:29:24.799Z,2.9
2023-01-29T07:31:33.725Z,3
2023-01-29T07:35:44.812Z,2.9
2023-01-29T07:37:50.452Z,2.9
2023-01-29T07:39:56.114Z,2.9
2023-01-29T07:42:03.343Z,2.9
2023-01-29T07:48:23.290Z,2.9
2023-01-29T07:52:34.555Z,2.9
2023-01-29T07:54:40.220Z,3
2023-01-29T07:56:45.851Z,3
2023-01-29T08:01:00.289Z,3.1
2023-01-29T08:03:05.931Z,3.1
2023-01-29T08:05:11.590Z,3.1
2023-01-29T08:09:22.847Z,3.1
2023-01-29T08:11:28.493Z,3.1
2023-01-29T08:15:42.855Z,3.1
2023-01-29T08:17:57.502Z,3.1
2023-01-29T08:19:54.139Z,3.2
2023-01-29T08:22:25.627Z,3.2
2023-01-29T08:24:41.688Z,3.2
2023-01-29T08:26:36.935Z,3.2
2023-01-29T08:28:45.669Z,3.2
2023-01-29T08:32:56.951Z,3.3
2023-01-29T08:35:02.621Z,3.4
2023-01-29T08:37:08.254Z,3.4
2023-01-29T08:39:13.901Z,3.5
2023-01-29T08:41:19.537Z,3.6
2023-01-29T08:43:28.273Z,3.6
2023-01-29T08:45:34.049Z,3.6
2023-01-29T08:47:39.561Z,3.6
2023-01-29T08:49:45.240Z,3.6
2023-01-29T08:51:50.880Z,3.6
2023-01-29T08:53:56.547Z,3.7
2023-01-29T08:58:10.944Z,3.7
2023-01-29T09:00:16.936Z,3.7
2023-01-29T09:02:22.351Z,3.8
2023-01-29T09:04:27.920Z,3.9
2023-01-29T09:06:33.584Z,3.8
2023-01-29T09:12:53.680Z,3.8
2023-01-29T09:14:59.343Z,3.8
2023-01-29T09:17:05.006Z,3.8
2023-01-29T09:18:09.419Z,3.9
2023-01-29T09:20:15.091Z,3.9
2023-01-29T09:22:20.758Z,3.9
2023-01-29T09:24:26.435Z,3.9
2023-01-29T09:26:35.251Z,4
2023-01-29T09:30:46.620Z,4
2023-01-29T09:32:54.114Z,4.1
2023-01-29T09:34:57.913Z,4.1
2023-01-29T09:37:03.559Z,4.1
2023-01-29T09:41:18.027Z,4
2023-01-29T09:43:23.729Z,4.1
2023-01-29T09:45:29.382Z,4.1
2023-01-29T09:47:35.058Z,4.1
2023-01-29T09:49:40.762Z,4.2
2023-01-29T09:51:46.431Z,4.2
2023-01-29T09:53:52.114Z,4.3
2023-01-29T09:56:00.874Z,4.3
2023-01-29T09:58:06.539Z,4.3
2023-01-29T10:00:12.248Z,4.2
2023-01-29T10:02:18.057Z,4.3
2023-01-29T10:04:23.659Z,4.3
2023-01-29T10:10:43.775Z,4.3
2023-01-29T10:14:55.140Z,4.3
2023-01-29T10:15:59.548Z,4.3
2023-01-29T10:18:05.327Z,4.3
2023-01-29T10:20:10.905Z,4.4
2023-01-29T10:22:16.599Z,4.4
2023-01-29T10:24:25.390Z,4.3
2023-01-29T10:34:53.903Z,4.5
2023-01-29T10:36:59.607Z,4.5
2023-01-29T10:39:08.376Z,4.5
2023-01-29T10:41:14.062Z,4.5
2023-01-29T10:43:19.781Z,4.6
2023-01-29T10:45:25.466Z,4.5
2023-01-29T10:49:36.852Z,4.5
2023-01-29T10:51:42.592Z,4.5
2023-01-29T10:53:51.333Z,4.5
2023-01-29T10:55:57.056Z,4.5
2023-01-29T10:58:03.145Z,4.5
2023-01-29T11:00:08.472Z,4.4
2023-01-29T11:06:25.568Z,4.5
2023-01-29T11:08:34.352Z,4.5
2023-01-29T11:10:40.117Z,4.5
2023-01-29T11:12:45.752Z,4.5
2023-01-29T11:13:50.140Z,4.5
2023-01-29T11:15:55.823Z,4.5
2023-01-29T11:18:01.566Z,4.6
2023-01-29T11:20:07.204Z,4.6
2023-01-29T11:22:15.980Z,4.5
2023-01-29T11:24:21.695Z,4.5
2023-01-29T11:26:27.465Z,4.5
2023-01-29T11:28:33.098Z,4.5
2023-01-29T11:30:38.889Z,4.5
2023-01-29T11:32:44.484Z,4.5
2023-01-29T11:34:50.192Z,4.5
2023-01-29T11:36:59.007Z,4.6
2023-01-29T11:39:04.713Z,4.6
2023-01-29T11:41:10.400Z,4.6
2023-01-29T11:43:16.125Z,4.6
2023-01-29T11:45:21.807Z,4.7
2023-01-29T11:47:27.522Z,4.8
2023-01-29T11:49:33.253Z,4.7
2023-01-29T11:51:42.008Z,4.7
2023-01-29T11:53:47.697Z,4.7
2023-01-29T11:55:53.408Z,4.6
2023-01-29T11:57:59.079Z,4.5
2023-01-29T12:00:04.825Z,4.4
2023-01-29T12:02:10.498Z,4.5
2023-01-29T12:04:16.209Z,4.5
2023-01-29T12:06:25.123Z,4.5
2023-01-29T12:13:07.916Z,4.6
2023-01-29T12:15:13.608Z,4.6
2023-01-29T12:17:19.310Z,4.6
2023-01-29T12:19:28.091Z,4.6
2023-01-29T12:21:33.986Z,4.6
2023-01-29T12:23:39.481Z,4.6
2023-01-29T12:25:45.197Z,4.6
2023-01-29T12:27:50.919Z,4.5
2023-01-29T12:29:56.618Z,4.5
2023-01-29T12:40:28.195Z,4.6
2023-01-29T12:42:33.919Z,4.6
2023-01-29T12:44:39.619Z,4.5
2023-01-29T12:46:45.375Z,4.5
2023-01-29T12:48:54.140Z,4.5
2023-01-29T12:50:59.823Z,4.5
2023-01-29T12:53:05.555Z,4.4
2023-01-29T12:55:11.252Z,4.4
2023-01-29T12:57:16.956Z,4.4
2023-01-29T12:59:22.647Z,4.3
2023-01-29T13:01:28.375Z,4.3
2023-01-29T13:05:42.801Z,4.3
2023-01-29T13:08:52.913Z,4.3
2023-01-29T13:13:04.318Z,4.3
2023-01-29T13:15:09.990Z,4.2
2023-01-29T13:17:18.807Z,4.3
2023-01-29T13:19:24.478Z,4.2
2023-01-29T13:21:30.195Z,4.2
2023-01-29T13:23:35.897Z,4.3
2023-01-29T13:27:47.280Z,4.2
2023-01-29T13:29:52.991Z,4.2
2023-01-29T13:32:01.860Z,4.2
2023-01-29T13:34:07.460Z,4.2
2023-01-29T13:36:13.137Z,4.2
2023-01-29T13:40:24.568Z,4.3
2023-01-29T13:42:30.224Z,4.3
2023-01-29T13:44:37.561Z,4.3
2023-01-29T13:46:46.270Z,4.4
2023-01-29T13:48:51.939Z,4.4
2023-01-29T13:50:57.663Z,4.4
2023-01-29T13:53:03.336Z,4.4
2023-01-29T13:55:09.750Z,4.5
2023-01-29T13:57:15.446Z,4.5
2023-01-29T13:59:21.129Z,4.6
2023-01-29T14:01:29.974Z,4.7
2023-01-29T14:03:56.128Z,4.7
2023-01-29T14:05:41.327Z,4.7
2023-01-29T14:06:45.710Z,4.7
2023-01-29T14:08:51.421Z,4.7
2023-01-29T14:13:02.829Z,4.7
2023-01-29T14:15:11.632Z,4.8
2023-01-29T14:17:17.324Z,4.8
2023-01-29T14:19:23.040Z,4.7
2023-01-29T14:23:34.431Z,4.7
2023-01-29T14:25:40.149Z,4.9
2023-01-29T14:27:45.855Z,4.9
2023-01-29T14:29:54.614Z,4.8
2023-01-29T14:32:00.345Z,4.8
2023-01-29T14:34:06.036Z,4.7
2023-01-29T14:36:11.748Z,4.8
2023-01-29T14:38:17.455Z,4.8
2023-01-29T14:40:23.185Z,4.8
2023-01-29T14:42:28.868Z,4.8
2023-01-29T14:44:37.663Z,4.7
2023-01-29T14:46:43.377Z,4.7
2023-01-29T14:50:54.753Z,4.7
2023-01-29T14:53:00.503Z,4.8
2023-01-29T14:55:06.205Z,4.7
2023-01-29T15:01:26.490Z,4.7
2023-01-29T15:04:36.483Z,4.8
2023-01-29T15:06:42.198Z,4.7
2023-01-29T15:10:53.609Z,4.7
2023-01-29T15:17:13.800Z,4.8
2023-01-29T15:21:25.228Z,4.7
2023-01-29T15:27:45.395Z,4.7
2023-01-29T15:29:51.102Z,4.7
2023-01-29T15:31:56.948Z,4.7
2023-01-29T15:34:02.503Z,4.7
2023-01-29T15:38:13.895Z,4.7
2023-01-29T15:40:19.643Z,4.6
2023-01-29T15:42:28.430Z,4.7
2023-01-29T15:44:34.125Z,4.7
2023-01-29T15:48:45.535Z,4.7
2023-01-29T15:50:51.255Z,4.6
2023-01-29T15:52:56.959Z,4.6
2023-01-29T15:55:02.657Z,4.6
2023-01-29T16:01:22.861Z,4.7
2023-01-29T16:03:54.372Z,4.6
2023-01-29T16:06:00.118Z,4.6
2023-01-29T16:08:05.790Z,4.6
2023-01-29T16:10:14.569Z,4.5
2023-01-29T16:12:20.355Z,4.5
2023-01-29T16:14:26.015Z,4.5
2023-01-29T16:16:31.766Z,4.5
2023-01-29T16:18:38.370Z,4.5
2023-01-29T16:20:43.108Z,4.5
2023-01-29T16:22:48.798Z,4.5
2023-01-29T16:24:57.589Z,4.5
2023-01-29T16:27:03.295Z,4.5
2023-01-29T16:29:08.979Z,4.4
2023-01-29T16:31:15.066Z,4.4
2023-01-29T16:33:20.380Z,4.4
2023-01-29T16:35:26.098Z,4.3
2023-01-29T16:37:31.761Z,4.3
2023-01-29T16:39:40.539Z,4.3
2023-01-29T16:45:57.633Z,4.3
2023-01-29T16:48:03.326Z,4.3
2023-01-29T16:50:09.032Z,4.2
2023-01-29T16:52:14.745Z,4.3
2023-01-29T16:54:23.524Z,4.2
2023-01-29T16:56:29.234Z,4.2
2023-01-29T16:58:34.935Z,4.1
2023-01-29T16:59:39.317Z,4
2023-01-29T17:01:45.041Z,4
2023-01-29T17:08:05.226Z,3.9
2023-01-29T17:12:16.613Z,4
2023-01-29T17:14:22.317Z,3.9
2023-01-29T17:18:33.718Z,4
2023-01-29T17:22:48.196Z,3.9
2023-01-29T17:24:53.863Z,4
2023-01-29T17:26:59.562Z,3.9
2023-01-29T17:29:05.289Z,3.9
2023-01-29T17:37:31.133Z,3.9
2023-01-29T17:43:48.204Z,4
2023-01-29T17:45:53.947Z,3.9
2023-01-29T17:47:59.603Z,3.9
2023-01-29T17:50:05.263Z,3.9
2023-01-29T17:52:14.064Z,3.9
2023-01-29T17:56:25.449Z,3.9
2023-01-29T17:57:32.405Z,4
2023-01-29T17:59:35.529Z,4
2023-01-29T18:01:41.313Z,4
2023-01-29T18:03:47.028Z,3.9
2023-01-29T18:05:55.708Z,4
2023-01-29T18:08:01.364Z,4
2023-01-29T18:10:07.095Z,4
2023-01-29T18:12:12.751Z,4
2023-01-29T18:14:18.445Z,4.1
2023-01-29T18:16:24.184Z,4.1
2023-01-29T18:18:29.827Z,4.1
2023-01-29T18:20:38.586Z,4.1
2023-01-29T18:22:44.294Z,4.1
2023-01-29T18:24:49.953Z,4.1
2023-01-29T18:26:55.723Z,4.2
2023-01-29T18:29:01.347Z,4.2
2023-01-29T18:31:07.061Z,4.2
2023-01-29T18:33:12.714Z,4.2
2023-01-29T18:35:21.481Z,4.2
2023-01-29T18:37:27.176Z,4.2
2023-01-29T18:39:32.900Z,4.2
2023-01-29T18:41:38.571Z,4.2
2023-01-29T18:43:44.252Z,4.2
2023-01-29T18:45:49.977Z,4.2
2023-01-29T18:47:55.673Z,4.2
2023-01-29T18:50:04.439Z,4.3
2023-01-29T18:54:15.816Z,4.2
2023-01-29T18:55:20.193Z,4.2
2023-01-29T18:58:33.925Z,4.2
2023-01-29T18:59:31.566Z,4.3
2023-01-29T19:01:37.306Z,4.3
2023-01-29T19:03:46.056Z,4.2
2023-01-29T19:05:51.738Z,4.3
2023-01-29T19:07:57.442Z,4.3
2023-01-29T19:10:03.129Z,4.3
2023-01-29T19:14:14.520Z,4.3
2023-01-29T19:16:20.230Z,4.3
2023-01-29T19:18:28.993Z,4.4
2023-01-29T19:20:34.726Z,4.4
2023-01-29T19:37:23.356Z,4.4
2023-01-29T19:41:34.736Z,4.4
2023-01-29T19:43:40.490Z,4.4
2023-01-29T19:45:49.610Z,4.3
2023-01-29T19:47:56.563Z,4.4
2023-01-29T19:54:39.477Z,4.4
2023-01-29T19:56:45.148Z,4.4
2023-01-29T20:00:59.811Z,4.4
2023-01-29T20:03:05.331Z,4.4
2023-01-29T20:05:11.066Z,4.5
2023-01-29T20:07:16.731Z,4.4
2023-01-29T20:09:22.430Z,4.4
2023-01-29T20:11:28.160Z,4.4
2023-01-29T20:13:33.853Z,4.4
2023-01-29T20:15:42.598Z,4.5
2023-01-29T20:17:48.314Z,4.4
2023-01-29T20:19:54.009Z,4.5
2023-01-29T20:21:59.688Z,4.5
2023-01-29T20:24:05.390Z,4.5
2023-01-29T20:26:11.182Z,4.5
2023-01-29T20:28:16.778Z,4.5
2023-01-29T20:30:25.621Z,4.5
2023-01-29T20:34:36.961Z,4.6
2023-01-29T20:36:42.674Z,4.6
2023-01-29T20:38:48.366Z,4.6
2023-01-29T20:40:54.089Z,4.6
2023-01-29T20:42:59.773Z,4.6
2023-01-29T20:45:08.555Z,4.6
2023-01-29T20:47:14.243Z,4.6
2023-01-29T20:49:19.944Z,4.6
2023-01-29T20:50:24.360Z,4.6
2023-01-29T20:54:35.727Z,4.7
2023-01-29T20:56:44.240Z,4.7
2023-01-29T20:58:50.228Z,4.7
2023-01-29T21:00:55.955Z,4.7
2023-01-29T21:03:01.673Z,4.7
2023-01-29T21:05:07.323Z,4.7
2023-01-29T21:07:13.063Z,4.7
2023-01-29T21:09:18.765Z,4.7
2023-01-29T21:11:24.439Z,4.7
2023-01-29T21:13:33.238Z,4.7
2023-01-29T21:15:38.931Z,4.8
2023-01-29T21:17:44.663Z,4.8
2023-01-29T21:19:50.316Z,4.8
2023-01-29T21:21:56.053Z,4.8
2023-01-29T21:24:01.748Z,4.8
2023-01-29T21:26:07.463Z,4.8
2023-01-29T21:28:16.263Z,4.9
2023-01-29T21:30:21.989Z,4.9
2023-01-29T21:34:33.397Z,4.9
2023-01-29T21:38:44.814Z,4.9
2023-01-29T21:45:04.991Z,4.9
2023-01-29T21:48:15.098Z,4.9
2023-01-29T21:50:20.915Z,4.9
2023-01-29T21:52:26.540Z,4.9
2023-01-29T21:54:32.226Z,4.9
2023-01-29T21:58:46.751Z,4.9
2023-01-29T22:00:52.523Z,4.9
2023-01-29T22:02:58.175Z,5
2023-01-29T22:05:17.666Z,5
2023-01-29T22:07:09.611Z,4.9
2023-01-29T22:09:15.345Z,4.9
2023-01-29T22:11:24.104Z,4.9
2023-01-29T22:13:29.924Z,5
2023-01-29T22:15:35.532Z,4.9
2023-01-29T22:17:41.310Z,4.9
2023-01-29T22:19:46.965Z,4.9
2023-01-29T22:21:52.697Z,5
2023-01-29T22:23:58.394Z,5
2023-01-29T22:26:07.232Z,5.1
2023-01-29T22:28:12.955Z,5
2023-01-29T22:30:18.936Z,5
2023-01-29T22:32:24.455Z,5.1
2023-01-29T22:34:30.112Z,5.2
2023-01-29T22:36:35.787Z,5.1
2023-01-29T22:38:41.538Z,5.2
2023-01-29T22:40:50.298Z,5.1
2023-01-29T22:48:11.872Z,5.2
2023-01-29T22:50:17.961Z,5.2
2023-01-29T22:52:23.314Z,5.2
2023-01-29T22:56:37.823Z,5.3
2023-01-29T22:58:43.538Z,5.3
2023-01-29T23:02:54.988Z,5.3
2023-01-29T23:05:00.699Z,5.3
2023-01-29T23:07:06.453Z,5.3
2023-01-29T23:13:26.661Z,5.3
2023-01-29T23:15:32.375Z,5.3
2023-01-29T23:19:43.851Z,5.4
2023-01-29T23:26:04.054Z,5.4
2023-01-29T23:30:15.840Z,5.5
2023-01-29T23:32:21.226Z,5.4
2023-01-29T23:34:26.961Z,5.4
2023-01-29T23:36:32.705Z,5.4
2023-01-29T23:40:47.223Z,5.5
2023-01-29T23:42:52.957Z,5.5
2023-01-29T23:45:24.456Z,5.6
2023-01-29T23:47:30.213Z,5.6
2023-01-29T23:49:35.936Z,5.6
2023-01-29T23:51:44.749Z,5.6
2023-01-29T23:53:50.442Z,5.7
2023-01-29T23:55:56.178Z,5.7
